sensor_id;sensor_type;location;lat;lon;timestamp;pressure;altitude;pressure_sealevel;temperature;humidity
65329;BME280;51941;52.210;5.158;2023-01-28T00:01:07;102962.06;;;3.78;72.54
65329;BME280;51941;52.210;5.158;2023-01-28T00:03:34;102959.03;;;3.73;72.36
65329;BME280;51941;52.210;5.158;2023-01-28T00:06:02;102982.72;;;3.71;72.53
65329;BME280;51941;52.210;5.158;2023-01-28T00:08:30;102975.56;;;3.73;72.55
65329;BME280;51941;52.210;5.158;2023-01-28T00:10:58;102961.19;;;3.68;72.57
65329;BME280;51941;52.210;5.158;2023-01-28T00:13:27;102951.81;;;3.56;72.17
65329;BME280;51941;52.210;5.158;2023-01-28T00:15:54;102971.00;;;3.66;72.12
65329;BME280;51941;52.210;5.158;2023-01-28T00:18:22;102942.41;;;3.53;71.96
65329;BME280;51941;52.210;5.158;2023-01-28T00:20:59;102969.22;;;3.76;71.92
65329;BME280;51941;52.210;5.158;2023-01-28T00:23:26;102953.06;;;3.61;72.22
65329;BME280;51941;52.210;5.158;2023-01-28T00:25:54;102937.16;;;3.43;72.07
65329;BME280;51941;52.210;5.158;2023-01-28T00:28:23;102963.94;;;3.57;72.09
65329;BME280;51941;52.210;5.158;2023-01-28T00:30:51;102959.97;;;3.62;72.22
65329;BME280;51941;52.210;5.158;2023-01-28T00:33:18;102972.22;;;3.62;71.99
65329;BME280;51941;52.210;5.158;2023-01-28T00:35:45;102924.84;;;3.34;72.01
65329;BME280;51941;52.210;5.158;2023-01-28T00:38:13;102961.16;;;3.58;71.93
65329;BME280;51941;52.210;5.158;2023-01-28T00:40:40;102949.44;;;3.52;71.90
65329;BME280;51941;52.210;5.158;2023-01-28T00:43:07;102966.97;;;3.62;71.67
65329;BME280;51941;52.210;5.158;2023-01-28T00:45:35;102928.22;;;3.46;71.83
65329;BME280;51941;52.210;5.158;2023-01-28T00:48:05;102905.47;;;3.16;71.56
65329;BME280;51941;52.210;5.158;2023-01-28T00:50:32;102960.34;;;3.48;71.57
65329;BME280;51941;52.210;5.158;2023-01-28T00:52:59;102970.81;;;3.58;71.29
65329;BME280;51941;52.210;5.158;2023-01-28T00:55:26;102968.72;;;3.51;71.43
65329;BME280;51941;52.210;5.158;2023-01-28T00:57:53;102966.25;;;3.50;71.28
65329;BME280;51941;52.210;5.158;2023-01-28T01:00:20;102961.16;;;3.48;71.37
65329;BME280;51941;52.210;5.158;2023-01-28T01:02:50;102951.47;;;3.49;71.49
65329;BME280;51941;52.210;5.158;2023-01-28T01:05:18;102966.09;;;3.51;71.19
65329;BME280;51941;52.210;5.158;2023-01-28T01:07:45;102954.69;;;3.52;71.30
65329;BME280;51941;52.210;5.158;2023-01-28T01:10:14;102969.44;;;3.53;71.02
65329;BME280;51941;52.210;5.158;2023-01-28T01:12:42;102963.63;;;3.50;71.05
65329;BME280;51941;52.210;5.158;2023-01-28T01:15:10;102926.75;;;3.32;70.69
65329;BME280;51941;52.210;5.158;2023-01-28T01:17:37;102955.63;;;3.51;70.67
65329;BME280;51941;52.210;5.158;2023-01-28T01:20:08;102962.25;;;3.46;70.35
65329;BME280;51941;52.210;5.158;2023-01-28T01:22:37;102962.06;;;3.38;69.99
65329;BME280;51941;52.210;5.158;2023-01-28T01:25:04;102967.69;;;3.33;69.89
65329;BME280;51941;52.210;5.158;2023-01-28T01:27:31;102964.91;;;3.25;70.15
65329;BME280;51941;52.210;5.158;2023-01-28T01:29:58;102969.41;;;3.23;70.08
65329;BME280;51941;52.210;5.158;2023-01-28T01:32:28;102954.97;;;3.19;70.15
65329;BME280;51941;52.210;5.158;2023-01-28T01:34:55;102972.09;;;3.33;70.30
65329;BME280;51941;52.210;5.158;2023-01-28T01:37:23;102969.06;;;3.28;70.20
65329;BME280;51941;52.210;5.158;2023-01-28T01:39:52;102964.81;;;3.36;70.10
65329;BME280;51941;52.210;5.158;2023-01-28T01:42:19;102973.03;;;3.32;69.98
65329;BME280;51941;52.210;5.158;2023-01-28T01:44:55;102974.84;;;3.31;69.65
65329;BME280;51941;52.210;5.158;2023-01-28T01:47:24;102980.06;;;3.31;69.67
65329;BME280;51941;52.210;5.158;2023-01-28T01:49:53;102928.16;;;3.06;69.63
65329;BME280;51941;52.210;5.158;2023-01-28T01:52:24;102978.34;;;3.41;69.60
65329;BME280;51941;52.210;5.158;2023-01-28T01:54:56;102975.34;;;3.46;69.50
65329;BME280;51941;52.210;5.158;2023-01-28T01:57:28;102975.34;;;3.46;69.63
65329;BME280;51941;52.210;5.158;2023-01-28T01:59:57;102976.41;;;3.43;69.54
65329;BME280;51941;52.210;5.158;2023-01-28T02:02:40;102972.97;;;3.43;69.49
65329;BME280;51941;52.210;5.158;2023-01-28T02:05:09;102972.97;;;3.43;69.68
65329;BME280;51941;52.210;5.158;2023-01-28T02:07:38;102962.44;;;3.33;69.49
65329;BME280;51941;52.210;5.158;2023-01-28T02:10:08;102974.75;;;3.42;69.60
65329;BME280;51941;52.210;5.158;2023-01-28T02:12:37;102976.41;;;3.43;69.48
65329;BME280;51941;52.210;5.158;2023-01-28T02:15:06;102975.59;;;3.43;69.34
65329;BME280;51941;52.210;5.158;2023-01-28T02:17:34;102978.34;;;3.41;69.41
65329;BME280;51941;52.210;5.158;2023-01-28T02:20:05;102949.06;;;3.27;69.39
65329;BME280;51941;52.210;5.158;2023-01-28T02:23:01;102973.81;;;3.43;69.39
65329;BME280;51941;52.210;5.158;2023-01-28T02:25:48;102922.56;;;3.10;69.47
65329;BME280;51941;52.210;5.158;2023-01-28T02:28:28;102983.25;;;3.35;69.30
65329;BME280;51941;52.210;5.158;2023-01-28T02:31:06;102995.66;;;3.33;69.51
65329;BME280;51941;52.210;5.158;2023-01-28T02:33:38;102998.38;;;3.31;69.30
65329;BME280;51941;52.210;5.158;2023-01-28T02:36:14;102984.88;;;3.26;69.25
65329;BME280;51941;52.210;5.158;2023-01-28T02:38:46;102998.00;;;3.36;69.44
65329;BME280;51941;52.210;5.158;2023-01-28T02:41:22;102992.66;;;3.37;69.53
65329;BME280;51941;52.210;5.158;2023-01-28T02:43:52;102992.66;;;3.37;69.36
65329;BME280;51941;52.210;5.158;2023-01-28T02:46:21;102961.16;;;3.18;69.30
65329;BME280;51941;52.210;5.158;2023-01-28T02:49:17;102986.31;;;3.40;69.35
65329;BME280;51941;52.210;5.158;2023-01-28T02:52:04;102971.41;;;3.31;69.14
65329;BME280;51941;52.210;5.158;2023-01-28T02:54:37;102985.09;;;3.44;69.23
65329;BME280;51941;52.210;5.158;2023-01-28T02:57:18;102986.06;;;3.43;69.17
65329;BME280;51941;52.210;5.158;2023-01-28T02:59:56;102984.16;;;3.45;69.13
65329;BME280;51941;52.210;5.158;2023-01-28T03:02:29;102978.06;;;3.44;69.15
65329;BME280;51941;52.210;5.158;2023-01-28T03:05:02;102985.81;;;3.46;69.33
65329;BME280;51941;52.210;5.158;2023-01-28T03:07:33;102982.47;;;3.44;69.06
65329;BME280;51941;52.210;5.158;2023-01-28T03:10:02;102978.19;;;3.43;69.19
65329;BME280;51941;52.210;5.158;2023-01-28T03:12:31;102981.06;;;3.40;69.06
65329;BME280;51941;52.210;5.158;2023-01-28T03:15:20;102981.22;;;3.38;69.08
65329;BME280;51941;52.210;5.158;2023-01-28T03:18:09;102879.59;;;2.83;69.24
65329;BME280;51941;52.210;5.158;2023-01-28T03:21:01;102974.34;;;3.37;69.15
65329;BME280;51941;52.210;5.158;2023-01-28T03:23:52;102983.97;;;3.37;69.13
65329;BME280;51941;52.210;5.158;2023-01-28T03:26:41;102981.06;;;3.30;69.12
65329;BME280;51941;52.210;5.158;2023-01-28T03:29:30;102981.06;;;3.30;69.12
65329;BME280;51941;52.210;5.158;2023-01-28T03:32:18;102983.91;;;3.27;69.02
65329;BME280;51941;52.210;5.158;2023-01-28T03:35:06;102980.06;;;3.31;69.19
65329;BME280;51941;52.210;5.158;2023-01-28T03:37:51;102969.75;;;3.30;69.18
65329;BME280;51941;52.210;5.158;2023-01-28T03:40:25;102978.88;;;3.35;69.08
65329;BME280;51941;52.210;5.158;2023-01-28T03:42:52;102973.50;;;3.37;69.08
65329;BME280;51941;52.210;5.158;2023-01-28T03:45:31;102979.28;;;3.40;69.19
65329;BME280;51941;52.210;5.158;2023-01-28T03:48:02;102980.81;;;3.43;69.09
65329;BME280;51941;52.210;5.158;2023-01-28T03:50:29;102986.63;;;3.46;69.13
65329;BME280;51941;52.210;5.158;2023-01-28T03:52:59;102986.19;;;3.41;69.04
65329;BME280;51941;52.210;5.158;2023-01-28T03:55:45;102982.69;;;3.31;68.92
65329;BME280;51941;52.210;5.158;2023-01-28T03:58:13;102986.72;;;3.35;69.06
65329;BME280;51941;52.210;5.158;2023-01-28T04:00:41;102980.66;;;3.35;69.09
65329;BME280;51941;52.210;5.158;2023-01-28T04:03:13;102987.63;;;3.25;68.76
65329;BME280;51941;52.210;5.158;2023-01-28T04:05:57;102991.53;;;3.30;68.85
65329;BME280;51941;52.210;5.158;2023-01-28T04:08:26;102962.22;;;3.15;68.82
65329;BME280;51941;52.210;5.158;2023-01-28T04:11:23;103004.44;;;3.32;68.91
65329;BME280;51941;52.210;5.158;2023-01-28T04:13:51;102972.56;;;3.17;68.98
65329;BME280;51941;52.210;5.158;2023-01-28T04:16:19;103000.47;;;3.28;68.80
65329;BME280;51941;52.210;5.158;2023-01-28T04:18:48;102970.84;;;3.06;68.89
65329;BME280;51941;52.210;5.158;2023-01-28T04:21:15;103016.03;;;3.29;68.89
65329;BME280;51941;52.210;5.158;2023-01-28T04:23:43;103007.22;;;3.30;68.95
65329;BME280;51941;52.210;5.158;2023-01-28T04:26:12;103004.44;;;3.22;68.90
65329;BME280;51941;52.210;5.158;2023-01-28T04:28:39;103018.78;;;3.28;68.80
65329;BME280;51941;52.210;5.158;2023-01-28T04:31:06;103015.09;;;3.30;68.77
65329;BME280;51941;52.210;5.158;2023-01-28T04:33:55;103021.28;;;3.29;68.56
65329;BME280;51941;52.210;5.158;2023-01-28T04:36:36;103013.00;;;3.34;68.49
65329;BME280;51941;52.210;5.158;2023-01-28T04:39:42;102969.78;;;3.09;68.65
65329;BME280;51941;52.210;5.158;2023-01-28T04:42:18;103010.41;;;3.34;68.56
65329;BME280;51941;52.210;5.158;2023-01-28T04:45:14;103003.06;;;3.28;68.69
65329;BME280;51941;52.210;5.158;2023-01-28T04:47:58;102996.75;;;3.30;68.68
65329;BME280;51941;52.210;5.158;2023-01-28T04:50:46;102987.56;;;3.15;68.56
65329;BME280;51941;52.210;5.158;2023-01-28T04:53:18;103000.00;;;3.23;68.52
65329;BME280;51941;52.210;5.158;2023-01-28T04:55:58;103003.31;;;3.25;68.69
65329;BME280;51941;52.210;5.158;2023-01-28T04:58:29;103005.09;;;3.24;68.97
65329;BME280;51941;52.210;5.158;2023-01-28T05:01:00;103006.66;;;3.27;68.81
65329;BME280;51941;52.210;5.158;2023-01-28T05:03:28;103004.16;;;3.25;68.81
65329;BME280;51941;52.210;5.158;2023-01-28T05:05:56;102995.47;;;3.25;68.59
65329;BME280;51941;52.210;5.158;2023-01-28T05:08:35;102958.28;;;3.00;68.22
65329;BME280;51941;52.210;5.158;2023-01-28T05:11:03;102998.78;;;3.27;68.30
65329;BME280;51941;52.210;5.158;2023-01-28T05:13:29;103007.47;;;3.27;68.38
65329;BME280;51941;52.210;5.158;2023-01-28T05:15:57;102995.16;;;3.18;68.27
65329;BME280;51941;52.210;5.158;2023-01-28T05:18:23;103006.78;;;3.25;68.41
65329;BME280;51941;52.210;5.158;2023-01-28T05:21:21;103002.63;;;3.23;68.37
65329;BME280;51941;52.210;5.158;2023-01-28T05:23:54;102996.94;;;3.18;68.36
65329;BME280;51941;52.210;5.158;2023-01-28T05:26:21;103006.00;;;3.13;68.18
65329;BME280;51941;52.210;5.158;2023-01-28T05:28:48;102996.34;;;3.04;68.15
65329;BME280;51941;52.210;5.158;2023-01-28T05:31:15;103006.53;;;3.07;68.08
65329;BME280;51941;52.210;5.158;2023-01-28T05:33:43;103002.25;;;3.06;68.13
65329;BME280;51941;52.210;5.158;2023-01-28T05:36:11;103000.47;;;3.07;68.43
65329;BME280;51941;52.210;5.158;2023-01-28T05:38:40;102960.84;;;2.91;68.22
65329;BME280;51941;52.210;5.158;2023-01-28T05:41:07;102988.84;;;3.00;68.04
65329;BME280;51941;52.210;5.158;2023-01-28T05:43:34;102986.75;;;2.94;68.11
65329;BME280;51941;52.210;5.158;2023-01-28T05:46:17;102994.84;;;2.91;68.28
65329;BME280;51941;52.210;5.158;2023-01-28T05:49:13;102992.88;;;2.83;68.18
65329;BME280;51941;52.210;5.158;2023-01-28T05:52:25;102975.13;;;2.66;67.95
65329;BME280;51941;52.210;5.158;2023-01-28T05:54:54;103010.34;;;2.83;68.14
65329;BME280;51941;52.210;5.158;2023-01-28T05:57:21;103004.06;;;2.85;68.03
65329;BME280;51941;52.210;5.158;2023-01-28T05:59:49;103002.69;;;2.91;68.04
65329;BME280;51941;52.210;5.158;2023-01-28T06:02:16;103006.03;;;2.93;68.08
65329;BME280;51941;52.210;5.158;2023-01-28T06:04:42;103008.06;;;2.89;67.97
65329;BME280;51941;52.210;5.158;2023-01-28T06:07:09;103002.34;;;2.95;67.97
65329;BME280;51941;52.210;5.158;2023-01-28T06:09:38;102999.31;;;3.00;68.18
65329;BME280;51941;52.210;5.158;2023-01-28T06:12:07;103012.28;;;3.01;68.01
65329;BME280;51941;52.210;5.158;2023-01-28T06:14:45;102976.78;;;2.88;68.04
65329;BME280;51941;52.210;5.158;2023-01-28T06:17:50;102994.22;;;2.98;67.91
65329;BME280;51941;52.210;5.158;2023-01-28T06:20:25;103007.81;;;2.92;67.99
65329;BME280;51941;52.210;5.158;2023-01-28T06:22:55;103011.63;;;2.88;68.19
65329;BME280;51941;52.210;5.158;2023-01-28T06:25:22;103005.84;;;2.85;68.16
65329;BME280;51941;52.210;5.158;2023-01-28T06:27:53;103004.88;;;2.86;68.10
65329;BME280;51941;52.210;5.158;2023-01-28T06:30:20;103007.09;;;2.90;68.13
65329;BME280;51941;52.210;5.158;2023-01-28T06:32:52;103008.53;;;2.94;68.07
65329;BME280;51941;52.210;5.158;2023-01-28T06:35:19;103010.44;;;2.92;68.08
65329;BME280;51941;52.210;5.158;2023-01-28T06:37:46;102996.50;;;2.71;68.21
65329;BME280;51941;52.210;5.158;2023-01-28T06:40:13;103034.22;;;2.89;68.29
65329;BME280;51941;52.210;5.158;2023-01-28T06:42:40;103030.66;;;2.90;68.52
65329;BME280;51941;52.210;5.158;2023-01-28T06:45:09;102979.34;;;2.57;68.65
65329;BME280;51941;52.210;5.158;2023-01-28T06:47:37;103019.97;;;2.82;68.72
65329;BME280;51941;52.210;5.158;2023-01-28T06:50:04;102991.94;;;2.52;68.60
65329;BME280;51941;52.210;5.158;2023-01-28T06:52:31;103035.91;;;2.79;68.87
65329;BME280;51941;52.210;5.158;2023-01-28T06:55:13;103000.03;;;2.49;68.66
65329;BME280;51941;52.210;5.158;2023-01-28T06:57:45;103040.25;;;2.69;68.69
65329;BME280;51941;52.210;5.158;2023-01-28T07:00:17;103026.09;;;2.71;68.70
65329;BME280;51941;52.210;5.158;2023-01-28T07:02:44;103032.88;;;2.74;68.58
65329;BME280;51941;52.210;5.158;2023-01-28T07:05:11;103023.81;;;2.78;68.60
65329;BME280;51941;52.210;5.158;2023-01-28T07:07:38;102996.56;;;2.60;68.38
65329;BME280;51941;52.210;5.158;2023-01-28T07:10:06;103022.91;;;2.89;68.47
65329;BME280;51941;52.210;5.158;2023-01-28T07:12:32;103034.34;;;2.88;68.08
65329;BME280;51941;52.210;5.158;2023-01-28T07:14:59;102994.16;;;2.68;68.28
65329;BME280;51941;52.210;5.158;2023-01-28T07:17:31;103036.50;;;2.83;68.29
65329;BME280;51941;52.210;5.158;2023-01-28T07:19:58;103030.66;;;2.90;68.26
65329;BME280;51941;52.210;5.158;2023-01-28T07:22:25;103034.09;;;2.91;68.35
65329;BME280;51941;52.210;5.158;2023-01-28T07:24:52;103022.72;;;2.81;68.02
65329;BME280;51941;52.210;5.158;2023-01-28T07:27:18;103042.78;;;2.91;68.24
65329;BME280;51941;52.210;5.158;2023-01-28T07:29:45;103040.03;;;2.93;68.29
65329;BME280;51941;52.210;5.158;2023-01-28T07:32:13;103008.88;;;2.69;68.04
65329;BME280;51941;52.210;5.158;2023-01-28T07:34:41;103039.78;;;2.96;68.09
65329;BME280;51941;52.210;5.158;2023-01-28T07:37:08;103042.13;;;2.99;68.02
65329;BME280;51941;52.210;5.158;2023-01-28T07:39:35;103044.75;;;2.99;68.03
65329;BME280;51941;52.210;5.158;2023-01-28T07:42:02;103027.72;;;2.84;67.80
65329;BME280;51941;52.210;5.158;2023-01-28T07:44:36;102971.63;;;2.56;67.77
65329;BME280;51941;52.210;5.158;2023-01-28T07:47:04;103052.66;;;3.08;67.80
65329;BME280;51941;52.210;5.158;2023-01-28T07:49:32;103049.03;;;3.00;67.72
65329;BME280;51941;52.210;5.158;2023-01-28T07:52:00;103062.06;;;3.11;67.73
65329;BME280;51941;52.210;5.158;2023-01-28T07:54:27;103002.00;;;2.68;67.22
65329;BME280;51941;52.210;5.158;2023-01-28T07:56:53;103055.28;;;3.08;67.40
65329;BME280;51941;52.210;5.158;2023-01-28T07:59:21;103054.22;;;3.11;67.33
65329;BME280;51941;52.210;5.158;2023-01-28T08:01:48;103061.59;;;3.06;67.10
65329;BME280;51941;52.210;5.158;2023-01-28T08:04:14;103056.81;;;3.11;67.26
65329;BME280;51941;52.210;5.158;2023-01-28T08:06:41;103053.94;;;3.14;67.37
65329;BME280;51941;52.210;5.158;2023-01-28T08:09:09;103061.53;;;3.17;67.26
65329;BME280;51941;52.210;5.158;2023-01-28T08:11:37;102980.38;;;2.66;67.03
65329;BME280;51941;52.210;5.158;2023-01-28T08:14:05;103055.47;;;3.16;66.86
65329;BME280;51941;52.210;5.158;2023-01-28T08:16:31;103062.00;;;3.22;67.12
65329;BME280;51941;52.210;5.158;2023-01-28T08:18:58;103073.16;;;3.24;67.04
65329;BME280;51941;52.210;5.158;2023-01-28T08:21:25;103076.06;;;3.21;67.08
65329;BME280;51941;52.210;5.158;2023-01-28T08:23:52;103072.06;;;3.27;67.20
65329;BME280;51941;52.210;5.158;2023-01-28T08:26:21;103082.16;;;3.31;67.30
65329;BME280;51941;52.210;5.158;2023-01-28T08:28:48;103063.53;;;3.25;66.85
65329;BME280;51941;52.210;5.158;2023-01-28T08:31:15;103068.94;;;3.33;66.28
65329;BME280;51941;52.210;5.158;2023-01-28T08:33:42;103077.94;;;3.40;66.15
65329;BME280;51941;52.210;5.158;2023-01-28T08:36:09;103083.75;;;3.43;66.25
65329;BME280;51941;52.210;5.158;2023-01-28T08:38:36;103071.56;;;3.33;66.42
65329;BME280;51941;52.210;5.158;2023-01-28T08:41:03;103096.84;;;3.43;66.38
65329;BME280;51941;52.210;5.158;2023-01-28T08:43:31;103096.84;;;3.43;66.32
65329;BME280;51941;52.210;5.158;2023-01-28T08:45:57;103092.44;;;3.44;66.40
65329;BME280;51941;52.210;5.158;2023-01-28T08:48:24;103054.53;;;3.18;66.52
65329;BME280;51941;52.210;5.158;2023-01-28T08:50:51;103087.25;;;3.33;66.48
65329;BME280;51941;52.210;5.158;2023-01-28T08:53:19;103092.91;;;3.28;66.69
65329;BME280;51941;52.210;5.158;2023-01-28T08:55:46;103053.06;;;3.04;66.66
65329;BME280;51941;52.210;5.158;2023-01-28T08:58:14;103089.97;;;3.22;66.73
65329;BME280;51941;52.210;5.158;2023-01-28T09:00:44;103069.84;;;3.01;66.92
65329;BME280;51941;52.210;5.158;2023-01-28T09:03:11;103054.56;;;2.86;67.07
65329;BME280;51941;52.210;5.158;2023-01-28T09:05:38;103047.69;;;2.85;67.14
65329;BME280;51941;52.210;5.158;2023-01-28T09:08:06;103101.38;;;3.21;67.12
65329;BME280;51941;52.210;5.158;2023-01-28T09:10:43;103105.66;;;3.22;66.97
65329;BME280;51941;52.210;5.158;2023-01-28T09:13:11;103106.50;;;3.22;67.12
65329;BME280;51941;52.210;5.158;2023-01-28T09:15:38;103098.88;;;3.19;67.04
65329;BME280;51941;52.210;5.158;2023-01-28T09:18:10;103104.38;;;3.16;66.73
65329;BME280;51941;52.210;5.158;2023-01-28T09:20:41;103122.41;;;3.30;67.00
65329;BME280;51941;52.210;5.158;2023-01-28T09:23:08;103124.88;;;3.32;66.94
65329;BME280;51941;52.210;5.158;2023-01-28T09:25:35;103129.03;;;3.34;66.83
65329;BME280;51941;52.210;5.158;2023-01-28T09:28:03;103097.47;;;3.15;66.71
65329;BME280;51941;52.210;5.158;2023-01-28T09:30:30;103124.69;;;3.44;66.76
65329;BME280;51941;52.210;5.158;2023-01-28T09:32:57;103124.88;;;3.52;66.71
65329;BME280;51941;52.210;5.158;2023-01-28T09:35:25;103120.22;;;3.56;66.39
65329;BME280;51941;52.210;5.158;2023-01-28T09:37:55;103129.47;;;3.60;66.33
65329;BME280;51941;52.210;5.158;2023-01-28T09:40:29;103124.53;;;3.67;66.26
65329;BME280;51941;52.210;5.158;2023-01-28T09:46:07;103118.09;;;3.71;66.04
65329;BME280;51941;52.210;5.158;2023-01-28T09:48:40;103118.81;;;3.73;66.16
65329;BME280;51941;52.210;5.158;2023-01-28T09:51:10;103127.75;;;3.70;66.27
65329;BME280;51941;52.210;5.158;2023-01-28T09:53:45;103134.66;;;3.71;66.05
65329;BME280;51941;52.210;5.158;2023-01-28T09:56:24;103127.81;;;3.59;66.06
65329;BME280;51941;52.210;5.158;2023-01-28T09:58:51;103135.22;;;3.54;65.75
65329;BME280;51941;52.210;5.158;2023-01-28T10:01:35;103139.63;;;3.53;65.70
65329;BME280;51941;52.210;5.158;2023-01-28T10:04:12;103141.50;;;3.63;65.65
65329;BME280;51941;52.210;5.158;2023-01-28T10:06:56;103111.84;;;3.41;65.67
65329;BME280;51941;52.210;5.158;2023-01-28T10:09:33;103152.41;;;3.68;65.51
65329;BME280;51941;52.210;5.158;2023-01-28T10:12:22;103153.81;;;3.72;65.27
65329;BME280;51941;52.210;5.158;2023-01-28T10:15:07;103134.72;;;3.60;64.88
65329;BME280;51941;52.210;5.158;2023-01-28T10:17:39;103134.41;;;3.74;65.36
65329;BME280;51941;52.210;5.158;2023-01-28T10:20:17;103134.25;;;3.76;65.15
65329;BME280;51941;52.210;5.158;2023-01-28T10:22:49;103116.75;;;3.76;65.19
65329;BME280;51941;52.210;5.158;2023-01-28T10:25:19;103124.09;;;3.82;65.00
65329;BME280;51941;52.210;5.158;2023-01-28T10:27:47;103127.66;;;3.81;64.93
65329;BME280;51941;52.210;5.158;2023-01-28T10:30:17;103126.84;;;3.81;64.63
65329;BME280;51941;52.210;5.158;2023-01-28T10:32:50;103120.38;;;3.85;64.50
65329;BME280;51941;52.210;5.158;2023-01-28T10:35:17;103121.47;;;3.82;64.04
65329;BME280;51941;52.210;5.158;2023-01-28T10:37:44;103121.66;;;3.90;64.17
65329;BME280;51941;52.210;5.158;2023-01-28T10:40:15;103064.72;;;3.62;64.47
65329;BME280;51941;52.210;5.158;2023-01-28T10:42:43;103122.38;;;4.02;64.61
65329;BME280;51941;52.210;5.158;2023-01-28T10:45:16;103123.78;;;4.06;64.34
65329;BME280;51941;52.210;5.158;2023-01-28T10:47:47;103116.22;;;4.13;64.21
65329;BME280;51941;52.210;5.158;2023-01-28T10:50:21;103114.88;;;4.18;64.13
65329;BME280;51941;52.210;5.158;2023-01-28T10:52:55;103105.06;;;4.20;63.92
65329;BME280;51941;52.210;5.158;2023-01-28T10:55:23;103085.63;;;4.23;63.58
65329;BME280;51941;52.210;5.158;2023-01-28T10:57:52;103075.72;;;4.26;63.54
65329;BME280;51941;52.210;5.158;2023-01-28T11:00:25;103065.78;;;4.30;63.50
65329;BME280;51941;52.210;5.158;2023-01-28T11:02:52;103079.31;;;4.35;63.35
65329;BME280;51941;52.210;5.158;2023-01-28T11:05:26;103073.53;;;4.51;63.42
65329;BME280;51941;52.210;5.158;2023-01-28T11:08:05;103018.47;;;4.41;63.29
65329;BME280;51941;52.210;5.158;2023-01-28T11:10:35;103052.03;;;4.76;62.25
65329;BME280;51941;52.210;5.158;2023-01-28T11:13:14;103039.06;;;4.94;62.36
65329;BME280;51941;52.210;5.158;2023-01-28T11:15:56;103041.53;;;5.15;62.36
65329;BME280;51941;52.210;5.158;2023-01-28T11:18:27;103049.09;;;5.27;62.03
65329;BME280;51941;52.210;5.158;2023-01-28T11:20:58;103028.34;;;5.34;61.85
65329;BME280;51941;52.210;5.158;2023-01-28T11:23:25;103034.00;;;5.39;61.15
65329;BME280;51941;52.210;5.158;2023-01-28T11:26:05;103027.34;;;5.45;60.89
65329;BME280;51941;52.210;5.158;2023-01-28T11:28:32;103012.91;;;5.31;59.56
65329;BME280;51941;52.210;5.158;2023-01-28T11:31:01;103004.72;;;5.34;60.50
65329;BME280;51941;52.210;5.158;2023-01-28T11:33:32;103005.72;;;5.33;61.02
65329;BME280;51941;52.210;5.158;2023-01-28T11:36:10;103005.00;;;5.31;61.47
65329;BME280;51941;52.210;5.158;2023-01-28T11:38:48;103013.84;;;5.30;61.11
65329;BME280;51941;52.210;5.158;2023-01-28T11:41:17;103009.56;;;5.29;60.88
65329;BME280;51941;52.210;5.158;2023-01-28T11:44:13;103004.19;;;5.30;60.78
65329;BME280;51941;52.210;5.158;2023-01-28T11:46:59;103015.69;;;5.20;60.92
65329;BME280;51941;52.210;5.158;2023-01-28T11:49:41;102919.78;;;4.50;60.78
65329;BME280;51941;52.210;5.158;2023-01-28T11:52:21;103031.41;;;5.29;61.12
65329;BME280;51941;52.210;5.158;2023-01-28T11:54:58;103031.41;;;5.29;60.82
65329;BME280;51941;52.210;5.158;2023-01-28T11:57:40;103026.88;;;5.22;60.38
65329;BME280;51941;52.210;5.158;2023-01-28T12:00:27;103026.56;;;5.25;60.17
65329;BME280;51941;52.210;5.158;2023-01-28T12:03:14;103019.13;;;5.30;60.60
65329;BME280;51941;52.210;5.158;2023-01-28T12:05:48;103016.91;;;5.16;60.58
65329;BME280;51941;52.210;5.158;2023-01-28T12:08:21;103038.47;;;5.29;60.88
65329;BME280;51941;52.210;5.158;2023-01-28T12:11:04;103041.78;;;5.21;60.66
65329;BME280;51941;52.210;5.158;2023-01-28T12:13:48;103044.72;;;5.09;60.72
65329;BME280;51941;52.210;5.158;2023-01-28T12:16:33;103045.72;;;4.98;60.86
65329;BME280;51941;52.210;5.158;2023-01-28T12:22:22;103053.41;;;5.19;61.10
65329;BME280;51941;52.210;5.158;2023-01-28T12:25:10;103034.19;;;5.18;61.19
65329;BME280;51941;52.210;5.158;2023-01-28T12:27:49;103044.41;;;5.21;61.00
65329;BME280;51941;52.210;5.158;2023-01-28T12:30:32;103037.78;;;5.17;60.96
65329;BME280;51941;52.210;5.158;2023-01-28T12:33:13;103030.31;;;5.22;60.86
65329;BME280;51941;52.210;5.158;2023-01-28T12:35:57;103006.59;;;5.04;60.99
65329;BME280;51941;52.210;5.158;2023-01-28T12:38:39;103018.03;;;5.13;61.03
65329;BME280;51941;52.210;5.158;2023-01-28T12:41:12;103010.44;;;5.20;61.15
65329;BME280;51941;52.210;5.158;2023-01-28T12:43:48;102984.84;;;5.31;60.92
65329;BME280;51941;52.210;5.158;2023-01-28T12:46:28;102991.66;;;5.52;60.94
65329;BME280;51941;52.210;5.158;2023-01-28T12:49:04;102970.88;;;5.68;60.58
65329;BME280;51941;52.210;5.158;2023-01-28T12:51:37;102975.03;;;5.88;60.21
65329;BME280;51941;52.210;5.158;2023-01-28T12:54:13;102971.22;;;6.00;59.87
65329;BME280;51941;52.210;5.158;2023-01-28T12:56:43;102934.13;;;5.86;59.42
65329;BME280;51941;52.210;5.158;2023-01-28T12:59:17;102957.69;;;6.13;59.17
65329;BME280;51941;52.210;5.158;2023-01-28T13:01:54;102957.72;;;6.31;59.34
65329;BME280;51941;52.210;5.158;2023-01-28T13:04:30;102957.19;;;6.27;58.77
65329;BME280;51941;52.210;5.158;2023-01-28T13:07:03;102941.41;;;6.09;58.41
65329;BME280;51941;52.210;5.158;2023-01-28T13:09:35;102958.47;;;6.23;59.03
65329;BME280;51941;52.210;5.158;2023-01-28T13:12:04;102959.34;;;6.14;59.37
65329;BME280;51941;52.210;5.158;2023-01-28T13:14:32;102926.97;;;5.96;59.83
65329;BME280;51941;52.210;5.158;2023-01-28T13:17:10;102950.28;;;6.08;59.68
65329;BME280;51941;52.210;5.158;2023-01-28T13:19:38;102949.22;;;6.01;59.71
65329;BME280;51941;52.210;5.158;2023-01-28T13:22:11;102936.41;;;5.89;60.45
65329;BME280;51941;52.210;5.158;2023-01-28T13:24:39;102891.56;;;5.55;61.17
65329;BME280;51941;52.210;5.158;2023-01-28T13:27:11;102941.69;;;5.89;60.77
65329;BME280;51941;52.210;5.158;2023-01-28T13:29:47;102906.66;;;5.70;60.48
65329;BME280;51941;52.210;5.158;2023-01-28T13:32:31;102943.94;;;5.84;60.12
65329;BME280;51941;52.210;5.158;2023-01-28T13:35:00;102944.44;;;5.87;60.55